sensor_id;sensor_type;location;lat;lon;timestamp;P1;durP1;ratioP1;P2;durP2;ratioP2
35324;SDS011;35135;47.510;19.036;2023-02-07T00:00:47;7.93;;;7.13;;
35324;SDS011;35135;47.510;19.036;2023-02-07T00:03:12;7.10;;;6.40;;
35324;SDS011;35135;47.510;19.036;2023-02-07T00:05:38;7.63;;;6.75;;
35324;SDS011;35135;47.510;19.036;2023-02-07T00:08:04;7.60;;;6.80;;
35324;SDS011;35135;47.510;19.036;2023-02-07T00:10:31;8.18;;;7.38;;
35324;SDS011;35135;47.510;19.036;2023-02-07T00:12:57;7.50;;;6.80;;
35324;SDS011;35135;47.510;19.036;2023-02-07T00:15:23;9.35;;;7.13;;
35324;SDS011;35135;47.510;19.036;2023-02-07T00:17:49;8.80;;;7.93;;
35324;SDS011;35135;47.510;19.036;2023-02-07T00:20:15;8.27;;;6.95;;
35324;SDS011;35135;47.510;19.036;2023-02-07T00:22:41;8.32;;;7.47;;
35324;SDS011;35135;47.510;19.036;2023-02-07T00:25:08;9.13;;;7.10;;
35324;SDS011;35135;47.510;19.036;2023-02-07T00:27:34;7.60;;;6.90;;
35324;SDS011;35135;47.510;19.036;2023-02-07T00:30:00;8.60;;;6.93;;
35324;SDS011;35135;47.510;19.036;2023-02-07T00:32:29;8.00;;;7.20;;
35324;SDS011;35135;47.510;19.036;2023-02-07T00:34:57;8.40;;;7.50;;
35324;SDS011;35135;47.510;19.036;2023-02-07T00:37:22;7.35;;;6.65;;
35324;SDS011;35135;47.510;19.036;2023-02-07T00:39:48;7.90;;;7.07;;
35324;SDS011;35135;47.510;19.036;2023-02-07T00:42:14;7.80;;;7.00;;
35324;SDS011;35135;47.510;19.036;2023-02-07T00:44:39;8.13;;;7.20;;
35324;SDS011;35135;47.510;19.036;2023-02-07T00:47:05;7.53;;;6.75;;
35324;SDS011;35135;47.510;19.036;2023-02-07T00:49:31;8.32;;;7.40;;
35324;SDS011;35135;47.510;19.036;2023-02-07T00:51:56;8.15;;;7.35;;
35324;SDS011;35135;47.510;19.036;2023-02-07T00:54:22;7.60;;;6.90;;
35324;SDS011;35135;47.510;19.036;2023-02-07T00:56:48;8.27;;;6.93;;
35324;SDS011;35135;47.510;19.036;2023-02-07T00:59:13;7.90;;;7.10;;
35324;SDS011;35135;47.510;19.036;2023-02-07T01:01:39;8.18;;;6.93;;
35324;SDS011;35135;47.510;19.036;2023-02-07T01:04:05;8.15;;;7.25;;
35324;SDS011;35135;47.510;19.036;2023-02-07T01:06:30;8.38;;;7.55;;
35324;SDS011;35135;47.510;19.036;2023-02-07T01:09:01;8.00;;;7.13;;
35324;SDS011;35135;47.510;19.036;2023-02-07T01:11:28;8.20;;;7.40;;
35324;SDS011;35135;47.510;19.036;2023-02-07T01:13:54;7.65;;;6.78;;
35324;SDS011;35135;47.510;19.036;2023-02-07T01:16:32;8.30;;;7.45;;
35324;SDS011;35135;47.510;19.036;2023-02-07T01:19:00;8.35;;;6.53;;
35324;SDS011;35135;47.510;19.036;2023-02-07T01:21:29;7.30;;;6.60;;
35324;SDS011;35135;47.510;19.036;2023-02-07T01:23:54;7.82;;;7.03;;
35324;SDS011;35135;47.510;19.036;2023-02-07T01:26:22;8.00;;;7.20;;
35324;SDS011;35135;47.510;19.036;2023-02-07T01:28:48;7.68;;;6.97;;
35324;SDS011;35135;47.510;19.036;2023-02-07T01:31:14;8.25;;;7.45;;
35324;SDS011;35135;47.510;19.036;2023-02-07T01:33:40;7.22;;;6.53;;
35324;SDS011;35135;47.510;19.036;2023-02-07T01:36:08;7.40;;;6.68;;
35324;SDS011;35135;47.510;19.036;2023-02-07T01:38:36;7.85;;;7.05;;
35324;SDS011;35135;47.510;19.036;2023-02-07T01:41:02;7.50;;;6.80;;
35324;SDS011;35135;47.510;19.036;2023-02-07T01:43:28;7.07;;;6.38;;
35324;SDS011;35135;47.510;19.036;2023-02-07T01:45:54;7.72;;;6.93;;
35324;SDS011;35135;47.510;19.036;2023-02-07T01:48:30;7.38;;;6.63;;
35324;SDS011;35135;47.510;19.036;2023-02-07T01:50:59;7.65;;;6.90;;
35324;SDS011;35135;47.510;19.036;2023-02-07T01:53:29;7.50;;;6.53;;
35324;SDS011;35135;47.510;19.036;2023-02-07T01:55:58;7.63;;;6.82;;
35324;SDS011;35135;47.510;19.036;2023-02-07T01:58:26;7.75;;;6.93;;
35324;SDS011;35135;47.510;19.036;2023-02-07T02:00:52;7.65;;;6.80;;
35324;SDS011;35135;47.510;19.036;2023-02-07T02:03:19;6.90;;;6.20;;
35324;SDS011;35135;47.510;19.036;2023-02-07T02:05:45;7.85;;;6.75;;
35324;SDS011;35135;47.510;19.036;2023-02-07T02:08:12;7.18;;;6.47;;
35324;SDS011;35135;47.510;19.036;2023-02-07T02:10:43;7.80;;;7.10;;
35324;SDS011;35135;47.510;19.036;2023-02-07T02:13:26;8.15;;;7.35;;
35324;SDS011;35135;47.510;19.036;2023-02-07T02:22:03;7.82;;;6.88;;
35324;SDS011;35135;47.510;19.036;2023-02-07T02:36:35;7.68;;;6.97;;
35324;SDS011;35135;47.510;19.036;2023-02-07T02:44:33;7.55;;;6.75;;
35324;SDS011;35135;47.510;19.036;2023-02-07T02:47:12;7.20;;;6.50;;
35324;SDS011;35135;47.510;19.036;2023-02-07T02:49:38;8.32;;;7.38;;
35324;SDS011;35135;47.510;19.036;2023-02-07T02:52:06;8.02;;;6.90;;
35324;SDS011;35135;47.510;19.036;2023-02-07T03:02:44;7.70;;;6.90;;
35324;SDS011;35135;47.510;19.036;2023-02-07T03:10:58;7.95;;;7.15;;
35324;SDS011;35135;47.510;19.036;2023-02-07T03:13:40;8.43;;;6.82;;
35324;SDS011;35135;47.510;19.036;2023-02-07T03:16:22;7.97;;;7.18;;
35324;SDS011;35135;47.510;19.036;2023-02-07T03:18:55;7.45;;;6.75;;
35324;SDS011;35135;47.510;19.036;2023-02-07T03:21:40;7.82;;;7.03;;
35324;SDS011;35135;47.510;19.036;2023-02-07T03:24:18;8.45;;;7.30;;
35324;SDS011;35135;47.510;19.036;2023-02-07T03:26:47;7.70;;;6.95;;
35324;SDS011;35135;47.510;19.036;2023-02-07T03:29:17;7.90;;;7.10;;
35324;SDS011;35135;47.510;19.036;2023-02-07T03:31:46;7.50;;;6.80;;
35324;SDS011;35135;47.510;19.036;2023-02-07T03:34:14;7.35;;;6.65;;
35324;SDS011;35135;47.510;19.036;2023-02-07T03:36:52;7.22;;;6.53;;
35324;SDS011;35135;47.510;19.036;2023-02-07T03:39:21;7.85;;;7.05;;
35324;SDS011;35135;47.510;19.036;2023-02-07T03:41:52;7.68;;;6.88;;
35324;SDS011;35135;47.510;19.036;2023-02-07T03:44:23;7.85;;;7.05;;
35324;SDS011;35135;47.510;19.036;2023-02-07T03:46:52;8.07;;;6.78;;
35324;SDS011;35135;47.510;19.036;2023-02-07T03:49:18;7.63;;;6.93;;
35324;SDS011;35135;47.510;19.036;2023-02-07T03:51:44;8.38;;;7.47;;
35324;SDS011;35135;47.510;19.036;2023-02-07T03:54:11;8.13;;;7.32;;
35324;SDS011;35135;47.510;19.036;2023-02-07T03:56:36;8.25;;;7.45;;
35324;SDS011;35135;47.510;19.036;2023-02-07T03:59:02;7.95;;;7.15;;
35324;SDS011;35135;47.510;19.036;2023-02-07T04:01:28;8.50;;;7.40;;
35324;SDS011;35135;47.510;19.036;2023-02-07T04:03:54;7.82;;;7.03;;
35324;SDS011;35135;47.510;19.036;2023-02-07T04:06:20;8.00;;;7.20;;
35324;SDS011;35135;47.510;19.036;2023-02-07T04:08:46;9.30;;;7.50;;
35324;SDS011;35135;47.510;19.036;2023-02-07T04:11:12;7.85;;;7.05;;
35324;SDS011;35135;47.510;19.036;2023-02-07T04:13:37;8.40;;;7.60;;
35324;SDS011;35135;47.510;19.036;2023-02-07T04:16:04;9.00;;;8.10;;
35324;SDS011;35135;47.510;19.036;2023-02-07T04:18:30;8.90;;;7.47;;
35324;SDS011;35135;47.510;19.036;2023-02-07T04:21:02;7.93;;;7.13;;
35324;SDS011;35135;47.510;19.036;2023-02-07T04:23:29;9.25;;;7.72;;
35324;SDS011;35135;47.510;19.036;2023-02-07T04:25:55;8.18;;;7.35;;
35324;SDS011;35135;47.510;19.036;2023-02-07T04:28:21;7.97;;;7.18;;
35324;SDS011;35135;47.510;19.036;2023-02-07T04:30:47;8.18;;;7.38;;
35324;SDS011;35135;47.510;19.036;2023-02-07T04:33:13;8.25;;;7.35;;
35324;SDS011;35135;47.510;19.036;2023-02-07T04:35:38;8.73;;;7.82;;
35324;SDS011;35135;47.510;19.036;2023-02-07T04:38:04;8.57;;;7.70;;
35324;SDS011;35135;47.510;19.036;2023-02-07T04:40:30;8.30;;;7.50;;
35324;SDS011;35135;47.510;19.036;2023-02-07T04:42:56;8.55;;;7.65;;
35324;SDS011;35135;47.510;19.036;2023-02-07T04:45:22;8.43;;;7.63;;
35324;SDS011;35135;47.510;19.036;2023-02-07T04:47:47;8.73;;;7.82;;
35324;SDS011;35135;47.510;19.036;2023-02-07T04:50:13;8.32;;;7.45;;
35324;SDS011;35135;47.510;19.036;2023-02-07T04:52:39;8.25;;;7.45;;
35324;SDS011;35135;47.510;19.036;2023-02-07T04:55:06;8.05;;;7.10;;
35324;SDS011;35135;47.510;19.036;2023-02-07T04:57:32;9.32;;;7.55;;
35324;SDS011;35135;47.510;19.036;2023-02-07T04:59:59;7.90;;;6.90;;
35324;SDS011;35135;47.510;19.036;2023-02-07T05:02:24;8.45;;;7.50;;
35324;SDS011;35135;47.510;19.036;2023-02-07T05:04:50;7.90;;;7.20;;
35324;SDS011;35135;47.510;19.036;2023-02-07T05:07:16;7.90;;;7.00;;
35324;SDS011;35135;47.510;19.036;2023-02-07T05:09:42;7.78;;;7.07;;
35324;SDS011;35135;47.510;19.036;2023-02-07T05:12:07;8.07;;;7.25;;
35324;SDS011;35135;47.510;19.036;2023-02-07T05:14:33;9.20;;;7.28;;
35324;SDS011;35135;47.510;19.036;2023-02-07T05:16:59;7.50;;;6.68;;
35324;SDS011;35135;47.510;19.036;2023-02-07T05:19:25;7.68;;;6.85;;
35324;SDS011;35135;47.510;19.036;2023-02-07T05:21:51;7.25;;;6.45;;
35324;SDS011;35135;47.510;19.036;2023-02-07T05:24:17;7.53;;;6.72;;
35324;SDS011;35135;47.510;19.036;2023-02-07T05:26:43;12.00;;;6.93;;
35324;SDS011;35135;47.510;19.036;2023-02-07T05:29:08;7.72;;;6.90;;
35324;SDS011;35135;47.510;19.036;2023-02-07T05:31:35;8.68;;;7.07;;
35324;SDS011;35135;47.510;19.036;2023-02-07T05:34:19;10.55;;;7.15;;
35324;SDS011;35135;47.510;19.036;2023-02-07T05:36:45;9.77;;;7.03;;
35324;SDS011;35135;47.510;19.036;2023-02-07T05:39:10;13.98;;;6.75;;
35324;SDS011;35135;47.510;19.036;2023-02-07T05:41:36;7.60;;;6.80;;
35324;SDS011;35135;47.510;19.036;2023-02-07T05:44:02;7.95;;;6.90;;
35324;SDS011;35135;47.510;19.036;2023-02-07T05:46:28;8.27;;;6.70;;
35324;SDS011;35135;47.510;19.036;2023-02-07T05:48:53;9.00;;;6.43;;
35324;SDS011;35135;47.510;19.036;2023-02-07T05:51:19;8.48;;;7.57;;
35324;SDS011;35135;47.510;19.036;2023-02-07T05:53:45;7.50;;;6.75;;
35324;SDS011;35135;47.510;19.036;2023-02-07T05:56:10;7.75;;;6.75;;
35324;SDS011;35135;47.510;19.036;2023-02-07T05:58:36;7.78;;;6.90;;
35324;SDS011;35135;47.510;19.036;2023-02-07T06:01:02;8.68;;;7.50;;
35324;SDS011;35135;47.510;19.036;2023-02-07T06:03:28;7.78;;;6.82;;
35324;SDS011;35135;47.510;19.036;2023-02-07T06:05:53;7.50;;;6.80;;
35324;SDS011;35135;47.510;19.036;2023-02-07T06:08:19;8.07;;;7.28;;
35324;SDS011;35135;47.510;19.036;2023-02-07T06:10:46;7.88;;;7.07;;
35324;SDS011;35135;47.510;19.036;2023-02-07T06:13:13;7.57;;;6.32;;
35324;SDS011;35135;47.510;19.036;2023-02-07T06:15:39;8.10;;;7.07;;
35324;SDS011;35135;47.510;19.036;2023-02-07T06:18:04;11.60;;;6.80;;
35324;SDS011;35135;47.510;19.036;2023-02-07T06:20:30;11.90;;;7.28;;
35324;SDS011;35135;47.510;19.036;2023-02-07T06:22:56;12.10;;;7.43;;
35324;SDS011;35135;47.510;19.036;2023-02-07T06:25:21;10.38;;;7.18;;
35324;SDS011;35135;47.510;19.036;2023-02-07T06:27:47;12.02;;;7.55;;
35324;SDS011;35135;47.510;19.036;2023-02-07T06:30:13;12.50;;;7.68;;
35324;SDS011;35135;47.510;19.036;2023-02-07T06:32:38;11.07;;;8.52;;
35324;SDS011;35135;47.510;19.036;2023-02-07T06:35:05;10.52;;;8.13;;
35324;SDS011;35135;47.510;19.036;2023-02-07T06:37:31;13.38;;;8.20;;
35324;SDS011;35135;47.510;19.036;2023-02-07T06:39:57;9.50;;;7.43;;
35324;SDS011;35135;47.510;19.036;2023-02-07T06:42:23;9.65;;;7.75;;
35324;SDS011;35135;47.510;19.036;2023-02-07T06:44:49;10.63;;;7.95;;
35324;SDS011;35135;47.510;19.036;2023-02-07T06:47:15;10.73;;;7.78;;
35324;SDS011;35135;47.510;19.036;2023-02-07T06:49:41;9.60;;;7.88;;
35324;SDS011;35135;47.510;19.036;2023-02-07T06:52:06;12.63;;;7.85;;
35324;SDS011;35135;47.510;19.036;2023-02-07T06:54:32;10.10;;;7.78;;
35324;SDS011;35135;47.510;19.036;2023-02-07T06:56:58;9.52;;;8.07;;
35324;SDS011;35135;47.510;19.036;2023-02-07T06:59:23;8.75;;;7.07;;
35324;SDS011;35135;47.510;19.036;2023-02-07T07:01:49;12.00;;;8.38;;
35324;SDS011;35135;47.510;19.036;2023-02-07T07:04:15;11.60;;;8.30;;
35324;SDS011;35135;47.510;19.036;2023-02-07T07:06:42;9.95;;;7.50;;
35324;SDS011;35135;47.510;19.036;2023-02-07T07:09:08;13.30;;;8.20;;
35324;SDS011;35135;47.510;19.036;2023-02-07T07:11:34;14.80;;;7.82;;
35324;SDS011;35135;47.510;19.036;2023-02-07T07:14:00;11.60;;;7.90;;
35324;SDS011;35135;47.510;19.036;2023-02-07T07:16:26;14.30;;;7.70;;
35324;SDS011;35135;47.510;19.036;2023-02-07T07:18:52;11.43;;;7.70;;
35324;SDS011;35135;47.510;19.036;2023-02-07T07:21:18;10.68;;;7.93;;
35324;SDS011;35135;47.510;19.036;2023-02-07T07:23:44;12.07;;;7.60;;
35324;SDS011;35135;47.510;19.036;2023-02-07T07:26:09;14.07;;;8.00;;
35324;SDS011;35135;47.510;19.036;2023-02-07T07:28:35;14.55;;;11.80;;
35324;SDS011;35135;47.510;19.036;2023-02-07T07:31:04;14.70;;;12.15;;
35324;SDS011;35135;47.510;19.036;2023-02-07T07:33:31;14.00;;;11.85;;
35324;SDS011;35135;47.510;19.036;2023-02-07T07:35:58;12.18;;;10.48;;
35324;SDS011;35135;47.510;19.036;2023-02-07T07:38:25;12.50;;;10.05;;
35324;SDS011;35135;47.510;19.036;2023-02-07T07:40:50;13.07;;;10.15;;
35324;SDS011;35135;47.510;19.036;2023-02-07T07:43:16;11.00;;;9.80;;
35324;SDS011;35135;47.510;19.036;2023-02-07T07:45:42;12.93;;;10.25;;
35324;SDS011;35135;47.510;19.036;2023-02-07T07:48:08;12.00;;;9.70;;
35324;SDS011;35135;47.510;19.036;2023-02-07T07:50:33;12.10;;;10.45;;
35324;SDS011;35135;47.510;19.036;2023-02-07T07:52:59;13.52;;;9.68;;
35324;SDS011;35135;47.510;19.036;2023-02-07T07:55:25;13.13;;;9.68;;
35324;SDS011;35135;47.510;19.036;2023-02-07T07:57:51;12.27;;;9.38;;
35324;SDS011;35135;47.510;19.036;2023-02-07T08:00:17;10.30;;;9.13;;
35324;SDS011;35135;47.510;19.036;2023-02-07T08:02:43;9.57;;;8.35;;
35324;SDS011;35135;47.510;19.036;2023-02-07T08:05:09;11.15;;;9.15;;
35324;SDS011;35135;47.510;19.036;2023-02-07T08:07:35;10.98;;;8.85;;
35324;SDS011;35135;47.510;19.036;2023-02-07T08:10:01;10.13;;;9.13;;
35324;SDS011;35135;47.510;19.036;2023-02-07T08:12:27;10.15;;;8.95;;
35324;SDS011;35135;47.510;19.036;2023-02-07T08:14:52;11.13;;;8.80;;
35324;SDS011;35135;47.510;19.036;2023-02-07T08:17:18;11.15;;;9.30;;
35324;SDS011;35135;47.510;19.036;2023-02-07T08:19:44;10.07;;;8.68;;
35324;SDS011;35135;47.510;19.036;2023-02-07T08:22:09;11.30;;;10.00;;
35324;SDS011;35135;47.510;19.036;2023-02-07T08:24:35;9.95;;;8.95;;
35324;SDS011;35135;47.510;19.036;2023-02-07T08:27:01;11.90;;;9.02;;
35324;SDS011;35135;47.510;19.036;2023-02-07T08:29:28;9.52;;;8.18;;
35324;SDS011;35135;47.510;19.036;2023-02-07T08:31:53;10.80;;;8.73;;
35324;SDS011;35135;47.510;19.036;2023-02-07T08:34:19;12.25;;;9.30;;
35324;SDS011;35135;47.510;19.036;2023-02-07T08:36:50;12.40;;;9.57;;
35324;SDS011;35135;47.510;19.036;2023-02-07T08:39:16;10.82;;;8.20;;
35324;SDS011;35135;47.510;19.036;2023-02-07T08:41:42;11.25;;;8.75;;
35324;SDS011;35135;47.510;19.036;2023-02-07T08:44:07;10.55;;;8.45;;
35324;SDS011;35135;47.510;19.036;2023-02-07T08:46:33;12.43;;;8.55;;
35324;SDS011;35135;47.510;19.036;2023-02-07T08:48:58;10.88;;;8.95;;
35324;SDS011;35135;47.510;19.036;2023-02-07T08:51:24;10.52;;;8.80;;
35324;SDS011;35135;47.510;19.036;2023-02-07T08:53:51;10.10;;;8.27;;
35324;SDS011;35135;47.510;19.036;2023-02-07T08:56:17;9.57;;;8.55;;
35324;SDS011;35135;47.510;19.036;2023-02-07T08:58:43;11.60;;;8.50;;
35324;SDS011;35135;47.510;19.036;2023-02-07T09:01:09;10.32;;;8.73;;
35324;SDS011;35135;47.510;19.036;2023-02-07T09:03:36;11.15;;;8.63;;
35324;SDS011;35135;47.510;19.036;2023-02-07T09:06:02;11.00;;;9.20;;
35324;SDS011;35135;47.510;19.036;2023-02-07T09:08:28;9.48;;;8.48;;
35324;SDS011;35135;47.510;19.036;2023-02-07T09:10:53;9.73;;;8.73;;
35324;SDS011;35135;47.510;19.036;2023-02-07T09:13:19;10.45;;;9.35;;
35324;SDS011;35135;47.510;19.036;2023-02-07T09:15:45;11.75;;;9.18;;
35324;SDS011;35135;47.510;19.036;2023-02-07T09:18:10;10.95;;;9.80;;
35324;SDS011;35135;47.510;19.036;2023-02-07T09:20:36;9.10;;;8.20;;
35324;SDS011;35135;47.510;19.036;2023-02-07T09:23:03;9.70;;;8.70;;
35324;SDS011;35135;47.510;19.036;2023-02-07T09:25:41;9.48;;;8.25;;
35324;SDS011;35135;47.510;19.036;2023-02-07T09:28:07;10.32;;;9.20;;
35324;SDS011;35135;47.510;19.036;2023-02-07T09:30:33;9.75;;;8.75;;
35324;SDS011;35135;47.510;19.036;2023-02-07T09:32:59;10.90;;;8.48;;
35324;SDS011;35135;47.510;19.036;2023-02-07T09:35:25;9.75;;;8.68;;
35324;SDS011;35135;47.510;19.036;2023-02-07T09:37:53;10.02;;;8.95;;
35324;SDS011;35135;47.510;19.036;2023-02-07T09:40:20;10.00;;;8.88;;
35324;SDS011;35135;47.510;19.036;2023-02-07T09:45:20;11.10;;;9.65;;
35324;SDS011;35135;47.510;19.036;2023-02-07T09:47:49;11.68;;;9.55;;
35324;SDS011;35135;47.510;19.036;2023-02-07T09:50:27;9.18;;;8.27;;
35324;SDS011;35135;47.510;19.036;2023-02-07T09:53:10;9.88;;;8.85;;
35324;SDS011;35135;47.510;19.036;2023-02-07T09:55:52;10.13;;;8.88;;
35324;SDS011;35135;47.510;19.036;2023-02-07T10:06:30;10.60;;;9.30;;
35324;SDS011;35135;47.510;19.036;2023-02-07T10:08:57;10.68;;;9.57;;
35324;SDS011;35135;47.510;19.036;2023-02-07T10:11:30;10.73;;;9.43;;
35324;SDS011;35135;47.510;19.036;2023-02-07T10:22:50;11.07;;;9.63;;
35324;SDS011;35135;47.510;19.036;2023-02-07T10:30:38;9.90;;;7.97;;
35324;SDS011;35135;47.510;19.036;2023-02-07T10:33:14;11.10;;;8.85;;
35324;SDS011;35135;47.510;19.036;2023-02-07T10:35:45;9.63;;;8.60;;
35324;SDS011;35135;47.510;19.036;2023-02-07T10:38:26;9.70;;;8.70;;
35324;SDS011;35135;47.510;19.036;2023-02-07T10:43:34;10.40;;;8.57;;
35324;SDS011;35135;47.510;19.036;2023-02-07T10:46:04;9.65;;;8.75;;
35324;SDS011;35135;47.510;19.036;2023-02-07T10:48:33;10.32;;;9.30;;
35324;SDS011;35135;47.510;19.036;2023-02-07T10:51:01;9.43;;;8.45;;
35324;SDS011;35135;47.510;19.036;2023-02-07T10:53:45;10.00;;;9.00;;
35324;SDS011;35135;47.510;19.036;2023-02-07T10:58:46;9.73;;;8.73;;
35324;SDS011;35135;47.510;19.036;2023-02-07T11:01:50;9.38;;;8.48;;
35324;SDS011;35135;47.510;19.036;2023-02-07T11:04:07;9.38;;;8.20;;
35324;SDS011;35135;47.510;19.036;2023-02-07T11:07:06;9.48;;;8.38;;
35324;SDS011;35135;47.510;19.036;2023-02-07T11:09:38;9.93;;;8.80;;
35324;SDS011;35135;47.510;19.036;2023-02-07T11:12:19;10.02;;;8.88;;
35324;SDS011;35135;47.510;19.036;2023-02-07T11:15:02;9.90;;;8.73;;
35324;SDS011;35135;47.510;19.036;2023-02-07T11:17:31;9.88;;;8.35;;
35324;SDS011;35135;47.510;19.036;2023-02-07T11:20:05;10.48;;;9.30;;
35324;SDS011;35135;47.510;19.036;2023-02-07T11:22:39;9.75;;;8.35;;
35324;SDS011;35135;47.510;19.036;2023-02-07T11:25:05;9.82;;;8.82;;
35324;SDS011;35135;47.510;19.036;2023-02-07T11:27:38;9.25;;;8.05;;
35324;SDS011;35135;47.510;19.036;2023-02-07T11:30:07;9.65;;;8.60;;
35324;SDS011;35135;47.510;19.036;2023-02-07T11:32:39;9.52;;;8.23;;
35324;SDS011;35135;47.510;19.036;2023-02-07T11:35:08;9.05;;;8.15;;
35324;SDS011;35135;47.510;19.036;2023-02-07T11:38:24;9.00;;;8.10;;
35324;SDS011;35135;47.510;19.036;2023-02-07T11:45:40;9.25;;;8.25;;
35324;SDS011;35135;47.510;19.036;2023-02-07T11:48:16;9.40;;;8.20;;
35324;SDS011;35135;47.510;19.036;2023-02-07T11:50:53;9.55;;;8.55;;
35324;SDS011;35135;47.510;19.036;2023-02-07T11:53:23;8.65;;;7.72;;
35324;SDS011;35135;47.510;19.036;2023-02-07T11:55:59;9.60;;;8.60;;
35324;SDS011;35135;47.510;19.036;2023-02-07T11:58:33;9.52;;;8.48;;
35324;SDS011;35135;47.510;19.036;2023-02-07T12:01:02;9.23;;;8.00;;
35324;SDS011;35135;47.510;19.036;2023-02-07T12:03:52;9.25;;;8.07;;
35324;SDS011;35135;47.510;19.036;2023-02-07T12:06:26;8.80;;;7.30;;
35324;SDS011;35135;47.510;19.036;2023-02-07T12:11:54;9.35;;;8.30;;
35324;SDS011;35135;47.510;19.036;2023-02-07T12:14:57;9.68;;;7.97;;
35324;SDS011;35135;47.510;19.036;2023-02-07T12:17:25;8.50;;;7.70;;
35324;SDS011;35135;47.510;19.036;2023-02-07T12:20:00;9.57;;;7.55;;
35324;SDS011;35135;47.510;19.036;2023-02-07T12:23:33;9.10;;;8.20;;
35324;SDS011;35135;47.510;19.036;2023-02-07T12:25:54;8.27;;;7.47;;
35324;SDS011;35135;47.510;19.036;2023-02-07T12:42:58;8.98;;;7.93;;
35324;SDS011;35135;47.510;19.036;2023-02-07T12:54:13;8.00;;;7.20;;
35324;SDS011;35135;47.510;19.036;2023-02-07T12:59:54;7.97;;;6.93;;
35324;SDS011;35135;47.510;19.036;2023-02-07T13:13:50;8.38;;;6.72;;
35324;SDS011;35135;47.510;19.036;2023-02-07T13:17:12;8.15;;;7.35;;
35324;SDS011;35135;47.510;19.036;2023-02-07T13:25:22;9.82;;;8.00;;
35324;SDS011;35135;47.510;19.036;2023-02-07T13:27:54;10.07;;;8.95;;
35324;SDS011;35135;47.510;19.036;2023-02-07T13:30:23;9.27;;;8.40;;
35324;SDS011;35135;47.510;19.036;2023-02-07T13:32:50;10.25;;;9.02;;
35324;SDS011;35135;47.510;19.036;2023-02-07T13:35:21;10.93;;;8.65;;
35324;SDS011;35135;47.510;19.036;2023-02-07T13:40:55;12.10;;;9.60;;
35324;SDS011;35135;47.510;19.036;2023-02-07T13:49:14;12.45;;;9.75;;
35324;SDS011;35135;47.510;19.036;2023-02-07T13:51:53;11.18;;;8.95;;
35324;SDS011;35135;47.510;19.036;2023-02-07T13:57:19;11.35;;;9.32;;
35324;SDS011;35135;47.510;19.036;2023-02-07T14:00:22;11.60;;;9.65;;
35324;SDS011;35135;47.510;19.036;2023-02-07T14:02:51;9.75;;;8.82;;
35324;SDS011;35135;47.510;19.036;2023-02-07T14:05:42;11.15;;;9.23;;
35324;SDS011;35135;47.510;19.036;2023-02-07T14:21:03;9.40;;;8.23;;
35324;SDS011;35135;47.510;19.036;2023-02-07T14:26:57;10.85;;;7.65;;
35324;SDS011;35135;47.510;19.036;2023-02-07T14:31:53;11.38;;;8.10;;
35324;SDS011;35135;47.510;19.036;2023-02-07T14:34:57;9.38;;;7.47;;
35324;SDS011;35135;47.510;19.036;2023-02-07T14:45:36;9.98;;;8.52;;
35324;SDS011;35135;47.510;19.036;2023-02-07T14:48:29;9.00;;;7.50;;
35324;SDS011;35135;47.510;19.036;2023-02-07T14:51:05;8.63;;;7.43;;
35324;SDS011;35135;47.510;19.036;2023-02-07T14:53:37;10.55;;;7.60;;
35324;SDS011;35135;47.510;19.036;2023-02-07T14:56:04;8.98;;;7.35;;
35324;SDS011;35135;47.510;19.036;2023-02-07T15:01:10;10.00;;;7.03;;
35324;SDS011;35135;47.510;19.036;2023-02-07T15:03:37;8.77;;;7.47;;
35324;SDS011;35135;47.510;19.036;2023-02-07T15:06:13;9.20;;;7.10;;
35324;SDS011;35135;47.510;19.036;2023-02-07T15:08:54;8.70;;;7.65;;
35324;SDS011;35135;47.510;19.036;2023-02-07T15:11:22;7.57;;;6.78;;
35324;SDS011;35135;47.510;19.036;2023-02-07T15:13:50;8.80;;;7.85;;
35324;SDS011;35135;47.510;19.036;2023-02-07T15:16:26;9.15;;;7.35;;
35324;SDS011;35135;47.510;19.036;2023-02-07T15:19:02;8.85;;;7.95;;
35324;SDS011;35135;47.510;19.036;2023-02-07T15:21:48;8.68;;;7.78;;
35324;SDS011;35135;47.510;19.036;2023-02-07T15:26:55;11.02;;;9.93;;
35324;SDS011;35135;47.510;19.036;2023-02-07T15:29:25;10.63;;;9.52;;
35324;SDS011;35135;47.510;19.036;2023-02-07T15:31:53;11.73;;;9.23;;
35324;SDS011;35135;47.510;19.036;2023-02-07T15:34:20;10.18;;;9.02;;
35324;SDS011;35135;47.510;19.036;2023-02-07T15:36:48;10.27;;;8.88;;
35324;SDS011;35135;47.510;19.036;2023-02-07T15:39:19;10.13;;;8.55;;
35324;SDS011;35135;47.510;19.036;2023-02-07T15:41:51;9.45;;;8.50;;
35324;SDS011;35135;47.510;19.036;2023-02-07T15:47:04;10.95;;;8.60;;
35324;SDS011;35135;47.510;19.036;2023-02-07T15:52:24;11.00;;;8.18;;
35324;SDS011;35135;47.510;19.036;2023-02-07T15:54:55;11.13;;;8.13;;
35324;SDS011;35135;47.510;19.036;2023-02-07T15:57:32;11.35;;;7.80;;
35324;SDS011;35135;47.510;19.036;2023-02-07T16:00:35;10.55;;;7.88;;
35324;SDS011;35135;47.510;19.036;2023-02-07T16:03:02;10.45;;;8.10;;
35324;SDS011;35135;47.510;19.036;2023-02-07T16:05:33;10.90;;;8.48;;
35324;SDS011;35135;47.510;19.036;2023-02-07T16:11:32;13.95;;;10.60;;
35324;SDS011;35135;47.510;19.036;2023-02-07T16:14:04;18.48;;;13.20;;
35324;SDS011;35135;47.510;19.036;2023-02-07T16:16:56;28.33;;;17.73;;
35324;SDS011;35135;47.510;19.036;2023-02-07T16:19:29;31.17;;;20.27;;
35324;SDS011;35135;47.510;19.036;2023-02-07T16:22:01;30.58;;;19.48;;
35324;SDS011;35135;47.510;19.036;2023-02-07T16:24:35;32.10;;;21.17;;
35324;SDS011;35135;47.510;19.036;2023-02-07T16:27:04;29.97;;;20.13;;
35324;SDS011;35135;47.510;19.036;2023-02-07T16:29:31;30.48;;;19.92;;
35324;SDS011;35135;47.510;19.036;2023-02-07T16:31:58;32.33;;;20.30;;
35324;SDS011;35135;47.510;19.036;2023-02-07T16:34:24;31.98;;;20.92;;
35324;SDS011;35135;47.510;19.036;2023-02-07T16:36:51;30.08;;;20.42;;
35324;SDS011;35135;47.510;19.036;2023-02-07T16:39:18;33.80;;;21.23;;
35324;SDS011;35135;47.510;19.036;2023-02-07T16:41:45;33.00;;;20.30;;
35324;SDS011;35135;47.510;19.036;2023-02-07T16:44:13;30.48;;;19.90;;
35324;SDS011;35135;47.510;19.036;2023-02-07T16:46:43;29.80;;;19.02;;
35324;SDS011;35135;47.510;19.036;2023-02-07T16:49:12;32.47;;;19.33;;
35324;SDS011;35135;47.510;19.036;2023-02-07T16:51:49;29.48;;;19.73;;
35324;SDS011;35135;47.510;19.036;2023-02-07T16:54:15;27.23;;;18.27;;
35324;SDS011;35135;47.510;19.036;2023-02-07T16:56:41;30.00;;;19.27;;
35324;SDS011;35135;47.510;19.036;2023-02-07T16:59:11;29.50;;;19.02;;
35324;SDS011;35135;47.510;19.036;2023-02-07T17:01:42;22.80;;;16.42;;
35324;SDS011;35135;47.510;19.036;2023-02-07T17:04:12;26.70;;;18.45;;
35324;SDS011;35135;47.510;19.036;2023-02-07T17:06:38;30.05;;;18.92;;
35324;SDS011;35135;47.510;19.036;2023-02-07T17:09:11;28.17;;;18.02;;
35324;SDS011;35135;47.510;19.036;2023-02-07T17:11:46;26.38;;;17.95;;
35324;SDS011;35135;47.510;19.036;2023-02-07T17:14:12;28.65;;;17.38;;
35324;SDS011;35135;47.510;19.036;2023-02-07T17:16:38;30.67;;;18.20;;
35324;SDS011;35135;47.510;19.036;2023-02-07T17:21:39;26.33;;;17.30;;
35324;SDS011;35135;47.510;19.036;2023-02-07T17:24:06;24.10;;;15.82;;
35324;SDS011;35135;47.510;19.036;2023-02-07T17:26:33;21.27;;;15.43;;
35324;SDS011;35135;47.510;19.036;2023-02-07T17:28:59;32.22;;;17.10;;
35324;SDS011;35135;47.510;19.036;2023-02-07T17:31:25;23.10;;;15.68;;
35324;SDS011;35135;47.510;19.036;2023-02-07T17:33:51;25.13;;;16.02;;
35324;SDS011;35135;47.510;19.036;2023-02-07T17:36:17;23.38;;;15.45;;